Time;durP1;ratioP1;P1;durP2;ratioP2;P2;SDS_P1;SDS_P2;PMS_P1;PMS_P2;Temp;Humidity;BMP_temperature;BMP_pressure;BME280_temperature;BME280_humidity;BME280_pressure;Samples;Min_cycle;Max_cycle;Signal;HPM_P1;HPM_P2
2022/03/25 00:01:57;;;;;;;13.15;5.15;;;;;;;13.59;26.62;99487.41;4433434;32;20081;-78
2022/03/25 00:04:23;;;;;;;13.88;5.53;;;;;;;13.64;26.61;99484.50;4424975;32;20085;-78
2022/03/25 00:06:48;;;;;;;16.98;5.47;;;;;;;13.62;26.65;99481.94;4439930;32;20124;-78
2022/03/25 00:09:14;;;;;;;14.55;5.40;;;;;;;13.64;26.67;99476.56;4425014;32;20484;-79
2022/03/25 00:11:40;;;;;;;14.07;5.62;;;;;;;13.64;26.70;99477.41;4429434;32;20434;-77
2022/03/25 00:14:05;;;;;;;15.88;6.15;;;;;;;13.61;26.74;99482.03;4423163;32;20120;-78
2022/03/25 00:16:32;;;;;;;16.33;5.72;;;;;;;13.57;26.80;99483.97;4409069;32;20429;-78
2022/03/25 00:18:58;;;;;;;16.10;5.72;;;;;;;13.56;26.80;99475.19;4423434;32;20094;-77
2022/03/25 00:21:23;;;;;;;14.77;5.78;;;;;;;13.53;26.86;99475.34;4416855;32;20405;-77
2022/03/25 00:23:49;;;;;;;14.63;5.57;;;;;;;13.35;27.15;99474.59;4439003;32;20100;-77
2022/03/25 00:26:15;;;;;;;14.20;5.00;;;;;;;13.38;27.03;99476.19;4439263;32;20097;-78
2022/03/25 00:28:40;;;;;;;14.35;5.30;;;;;;;13.37;27.15;99471.88;4425434;32;20147;-76
2022/03/25 00:31:09;;;;;;;16.55;5.90;;;;;;;13.38;27.25;99478.84;4435014;32;20437;-75
2022/03/25 00:33:36;;;;;;;15.25;5.87;;;;;;;13.28;27.33;99474.97;4414948;32;20108;-78
2022/03/25 00:36:02;;;;;;;18.65;5.75;;;;;;;13.14;27.45;99473.94;4410160;32;20456;-77
2022/03/25 00:38:28;;;;;;;16.45;5.82;;;;;;;12.98;27.59;99475.72;4424117;32;20089;-78
2022/03/25 00:40:54;;;;;;;13.48;4.90;;;;;;;13.11;27.44;99479.38;4427271;32;20112;-78
2022/03/25 00:43:20;;;;;;;15.82;5.20;;;;;;;13.19;27.23;99481.59;4439265;32;20086;-78
2022/03/25 00:45:46;;;;;;;15.55;5.57;;;;;;;13.22;27.30;99477.97;4439323;32;20093;-77
2022/03/25 00:48:13;;;;;;;15.20;6.07;;;;;;;13.27;27.44;99478.53;4425449;32;20119;-78
2022/03/25 00:50:39;;;;;;;14.63;5.35;;;;;;;13.24;27.54;99478.72;4437528;32;20093;-78
2022/03/25 00:53:05;;;;;;;16.52;5.70;;;;;;;13.24;27.41;99466.34;4410033;32;20081;-78
2022/03/25 00:55:31;;;;;;;14.93;5.15;;;;;;;13.14;27.61;99478.38;4409802;32;20468;-77
2022/03/25 00:57:58;;;;;;;19.10;5.72;;;;;;;13.24;27.34;99471.62;4423920;32;20362;-78
2022/03/25 01:00:24;;;;;;;14.35;5.32;;;;;;;12.95;27.70;99476.69;4410074;32;20173;-77
2022/03/25 01:02:49;;;;;;;14.18;5.80;;;;;;;13.11;27.64;99473.25;4438562;32;20142;-78
2022/03/25 01:05:15;;;;;;;13.60;4.85;;;;;;;13.16;27.64;99474.69;4412374;32;20150;-78
2022/03/25 01:07:40;;;;;;;14.50;4.95;;;;;;;13.15;27.83;99473.00;4424665;32;20113;-78
2022/03/25 01:10:06;;;;;;;15.95;5.18;;;;;;;13.17;27.94;99473.78;4421341;32;20110;-78
2022/03/25 01:12:32;;;;;;;13.68;4.68;;;;;;;13.20;28.00;99471.91;4410411;32;20406;-77
2022/03/25 01:14:57;;;;;;;14.85;4.87;;;;;;;13.17;28.06;99465.84;4408418;32;20129;-78
2022/03/25 01:17:22;;;;;;;15.57;5.65;;;;;;;13.14;28.19;99462.50;4408656;32;20085;-77
2022/03/25 01:19:48;;;;;;;13.62;5.07;;;;;;;13.15;28.31;99464.19;4408279;32;20155;-79
2022/03/25 01:22:15;;;;;;;14.35;5.20;;;;;;;13.11;28.24;99466.16;4416937;32;20098;-78
2022/03/25 01:24:40;;;;;;;13.48;4.95;;;;;;;13.13;28.21;99464.31;4422474;32;20157;-78
2022/03/25 01:27:05;;;;;;;12.52;5.12;;;;;;;13.10;28.14;99467.09;4423727;32;20396;-78
2022/03/25 01:29:31;;;;;;;16.60;5.87;;;;;;;13.10;28.11;99463.62;4423414;32;20403;-76
2022/03/25 01:31:57;;;;;;;13.43;4.87;;;;;;;13.07;28.12;99463.75;4413759;32;20101;-78
2022/03/25 01:34:22;;;;;;;13.30;4.87;;;;;;;13.06;28.17;99464.72;4407775;32;20118;-77
2022/03/25 01:36:49;;;;;;;13.43;5.32;;;;;;;13.07;28.26;99471.69;4406851;32;20201;-78
2022/03/25 01:39:14;;;;;;;12.50;4.70;;;;;;;13.01;28.34;99467.59;4407999;32;20146;-77
2022/03/25 01:41:40;;;;;;;11.70;4.47;;;;;;;13.05;28.33;99469.13;4408605;32;20102;-77
2022/03/25 01:44:09;;;;;;;12.82;4.57;;;;;;;12.99;28.46;99462.38;4406734;32;20098;-77
2022/03/25 01:46:34;;;;;;;14.90;5.00;;;;;;;12.99;28.38;99475.59;4407955;32;20193;-77
2022/03/25 01:49:00;;;;;;;17.23;5.20;;;;;;;12.99;28.38;99474.75;4407978;32;20116;-77
2022/03/25 01:51:30;;;;;;;16.12;5.95;;;;;;;12.97;28.39;99480.13;4411948;32;20124;-77
2022/03/25 01:54:03;;;;;;;15.50;5.53;;;;;;;12.93;28.53;99472.44;4421881;32;20469;-77
2022/03/25 01:56:28;;;;;;;14.18;4.95;;;;;;;12.96;28.73;99470.50;4421595;32;20128;-77
2022/03/25 01:58:54;;;;;;;15.73;4.65;;;;;;;12.92;28.75;99476.00;4422184;32;20090;-78
2022/03/25 02:01:20;;;;;;;16.92;4.60;;;;;;;12.80;29.10;99477.50;4418265;32;20086;-77
2022/03/25 02:03:46;;;;;;;13.95;5.15;;;;;;;12.78;29.18;99477.59;4406490;32;20098;-77
2022/03/25 02:06:12;;;;;;;15.68;5.53;;;;;;;12.82;29.17;99480.09;4393645;32;20193;-79
2022/03/25 02:08:37;;;;;;;14.95;4.90;;;;;;;12.77;29.21;99475.91;4406311;32;20129;-78
2022/03/25 02:11:03;;;;;;;11.80;4.47;;;;;;;12.79;29.28;99476.66;4409958;32;20406;-77
2022/03/25 02:13:29;;;;;;;14.02;4.75;;;;;;;12.74;29.29;99481.34;4422780;32;20374;-77
2022/03/25 02:15:55;;;;;;;15.25;4.93;;;;;;;12.75;29.42;99483.06;4422635;32;20437;-77
2022/03/25 02:18:21;;;;;;;12.70;5.07;;;;;;;12.69;29.36;99483.37;4422769;32;20089;-78
2022/03/25 02:20:48;;;;;;;16.50;4.97;;;;;;;12.66;29.45;99486.19;4421730;32;20335;-76
2022/03/25 02:23:14;;;;;;;15.25;5.32;;;;;;;12.58;29.48;99491.00;4409585;32;20155;-77
2022/03/25 02:25:41;;;;;;;12.05;5.20;;;;;;;12.56;29.56;99488.44;4408406;32;20094;-76
2022/03/25 02:28:06;;;;;;;12.98;4.82;;;;;;;12.53;29.52;99490.37;4408134;32;20134;-76
2022/03/25 02:30:33;;;;;;;13.73;5.55;;;;;;;12.49;29.58;99484.41;4409504;32;20121;-76
2022/03/25 02:33:01;;;;;;;15.90;5.65;;;;;;;12.52;29.50;99491.34;4423909;32;20093;-76
2022/03/25 02:35:47;;;;;;;13.50;5.28;;;;;;;12.51;29.57;99489.59;4423330;32;20495;-77
2022/03/25 02:38:17;;;;;;;15.18;5.20;;;;;;;12.48;29.57;99497.72;4409387;32;20198;-77
2022/03/25 02:40:43;;;;;;;19.23;5.62;;;;;;;12.45;29.55;99498.69;4407852;32;20094;-78
2022/03/25 02:43:10;;;;;;;14.40;5.25;;;;;;;12.50;29.53;99506.41;4423325;32;20144;-76
2022/03/25 02:45:36;;;;;;;15.13;5.68;;;;;;;12.48;29.53;99506.50;4423601;32;20089;-76
2022/03/25 02:48:02;;;;;;;13.10;5.22;;;;;;;12.49;29.58;99510.81;4424720;32;20132;-78
2022/03/25 02:50:28;;;;;;;14.80;5.53;;;;;;;12.42;29.75;99517.38;4424647;32;20086;-76
2022/03/25 02:52:54;;;;;;;15.02;5.70;;;;;;;12.29;29.93;99511.84;4419705;32;20164;-76
2022/03/25 02:55:20;;;;;;;13.52;5.32;;;;;;;12.20;29.89;99520.22;4409243;32;20102;-77
2022/03/25 02:57:45;;;;;;;15.27;5.53;;;;;;;12.33;29.69;99518.69;4408161;32;20081;-77
2022/03/25 03:00:11;;;;;;;14.77;5.82;;;;;;;12.29;29.72;99517.12;4414024;32;20105;-77
2022/03/25 03:02:37;;;;;;;15.60;5.80;;;;;;;12.33;29.70;99516.03;4409134;32;20102;-76
2022/03/25 03:05:06;;;;;;;16.58;6.25;;;;;;;12.36;29.75;99521.19;4408242;32;20137;-78
2022/03/25 03:07:32;;;;;;;13.82;5.28;;;;;;;12.32;29.82;99514.34;4408366;32;20157;-76
2022/03/25 03:09:58;;;;;;;16.12;5.50;;;;;;;12.35;29.84;99521.25;4433203;32;20092;-76
2022/03/25 03:12:24;;;;;;;14.98;5.25;;;;;;;12.29;29.82;99522.41;4413257;32;20101;-78
2022/03/25 03:14:50;;;;;;;15.63;5.80;;;;;;;12.23;29.88;99522.72;4439891;32;20120;-77
2022/03/25 03:17:15;;;;;;;15.90;5.93;;;;;;;12.25;29.82;99520.84;4440178;32;20097;-77
2022/03/25 03:19:41;;;;;;;15.35;5.68;;;;;;;12.29;29.87;99517.12;4416829;32;20112;-78
2022/03/25 03:22:06;;;;;;;16.10;5.97;;;;;;;12.26;29.84;99519.91;4424587;32;20456;-77
2022/03/25 03:24:32;;;;;;;14.32;5.82;;;;;;;12.33;29.75;99520.47;4424773;32;20090;-77
2022/03/25 03:27:00;;;;;;;14.52;5.60;;;;;;;12.31;29.80;99519.69;4426758;32;20206;-77
2022/03/25 03:29:25;;;;;;;14.38;5.28;;;;;;;12.25;29.93;99522.66;4439519;32;20089;-82
2022/03/25 03:31:51;;;;;;;16.42;6.05;;;;;;;12.26;29.98;99522.53;4424260;32;20419;-77
2022/03/25 03:34:17;;;;;;;16.92;5.90;;;;;;;12.25;30.00;99518.22;4418874;32;20135;-76
2022/03/25 03:36:42;;;;;;;15.05;5.68;;;;;;;12.27;29.96;99513.69;4406772;32;20101;-76
2022/03/25 03:39:08;;;;;;;15.88;5.75;;;;;;;12.23;30.03;99517.44;4424402;32;20116;-77
2022/03/25 03:41:33;;;;;;;16.67;5.70;;;;;;;12.25;30.06;99514.72;4437939;32;20457;-76
2022/03/25 03:43:59;;;;;;;16.67;5.72;;;;;;;12.25;30.11;99512.94;4417569;32;20101;-77
2022/03/25 03:46:24;;;;;;;14.50;5.50;;;;;;;12.19;30.16;99516.72;4425020;32;20096;-75
2022/03/25 03:48:50;;;;;;;15.60;5.72;;;;;;;12.24;30.17;99519.13;4428198;32;20094;-76
2022/03/25 03:51:15;;;;;;;17.30;6.45;;;;;;;11.88;30.84;99525.25;4424222;32;20101;-77
2022/03/25 03:53:41;;;;;;;14.60;5.87;;;;;;;11.98;30.78;99515.16;4424172;32;20462;-77
2022/03/25 03:56:06;;;;;;;16.27;6.45;;;;;;;12.11;30.61;99518.91;4410425;32;20135;-77
2022/03/25 03:58:32;;;;;;;17.73;6.35;;;;;;;12.12;30.68;99517.94;4423755;32;20133;-76
2022/03/25 04:00:57;;;;;;;16.15;6.12;;;;;;;12.18;30.65;99516.78;4425587;32;20125;-76
2022/03/25 04:03:23;;;;;;;14.95;5.43;;;;;;;12.09;30.73;99515.47;4438762;32;20119;-77
2022/03/25 04:05:48;;;;;;;15.05;6.32;;;;;;;12.09;30.73;99514.59;4439566;32;20188;-77
2022/03/25 04:08:14;;;;;;;14.20;5.80;;;;;;;12.13;30.77;99516.16;4439186;32;20113;-77
2022/03/25 04:10:39;;;;;;;14.75;5.30;;;;;;;12.10;30.67;99508.41;4426089;32;20102;-77
2022/03/25 04:13:05;;;;;;;17.08;6.55;;;;;;;12.10;30.64;99511.03;4410231;32;20090;-76
2022/03/25 04:15:31;;;;;;;18.98;7.12;;;;;;;12.06;30.77;99515.63;4424276;32;20170;-76
2022/03/25 04:17:56;;;;;;;15.77;6.32;;;;;;;11.97;31.04;99516.91;4409850;32;20090;-76
2022/03/25 04:20:21;;;;;;;14.60;6.22;;;;;;;12.02;31.04;99514.06;4421179;32;20097;-77
2022/03/25 04:22:47;;;;;;;13.43;5.78;;;;;;;12.05;31.05;99510.41;4439394;32;20145;-76
2022/03/25 04:25:13;;;;;;;15.10;5.65;;;;;;;12.09;31.16;99519.88;4439727;32;20105;-76
2022/03/25 04:27:53;;;;;;;17.80;6.57;;;;;;;12.05;31.15;99513.03;4439765;32;20111;-76
2022/03/25 04:30:25;;;;;;;16.95;5.97;;;;;;;12.05;31.20;99516.53;4422238;32;21869;-77
2022/03/25 04:32:51;;;;;;;18.00;6.68;;;;;;;12.02;31.36;99514.06;4410622;32;20128;-77
2022/03/25 04:35:17;;;;;;;19.37;6.47;;;;;;;11.98;31.43;99518.63;4400675;32;20097;-78
2022/03/25 04:37:43;;;;;;;15.60;6.12;;;;;;;12.04;31.39;99516.62;4439938;32;20146;-77
2022/03/25 04:40:13;;;;;;;16.05;6.05;;;;;;;12.04;31.39;99521.91;4429675;32;20097;-76
2022/03/25 04:42:38;;;;;;;15.65;6.47;;;;;;;12.05;31.29;99521.81;4423908;32;20090;-78
2022/03/25 04:45:04;;;;;;;15.07;6.40;;;;;;;12.05;31.26;99526.25;4423891;32;20104;-76
2022/03/25 04:47:30;;;;;;;16.30;6.55;;;;;;;12.12;31.26;99532.94;4424041;32;20104;-76
2022/03/25 04:49:56;;;;;;;17.25;6.62;;;;;;;12.14;31.28;99534.56;4417872;32;20378;-76
2022/03/25 04:52:21;;;;;;;16.92;7.03;;;;;;;12.15;31.30;99530.16;4439291;32;20086;-76
2022/03/25 04:54:47;;;;;;;19.02;7.03;;;;;;;12.20;31.24;99528.13;4439417;32;20105;-77
2022/03/25 04:57:12;;;;;;;18.10;6.62;;;;;;;12.22;31.25;99534.19;4439330;32;20085;-76
2022/03/25 04:59:37;;;;;;;16.27;6.20;;;;;;;12.23;31.13;99530.63;4433118;32;20350;-76
2022/03/25 05:02:03;;;;;;;14.10;6.18;;;;;;;12.27;31.16;99539.28;4410080;32;20102;-76
2022/03/25 05:04:28;;;;;;;16.37;6.25;;;;;;;12.32;31.27;99540.75;4423361;32;20123;-75
2022/03/25 05:06:54;;;;;;;15.23;6.43;;;;;;;12.43;31.19;99542.00;4424075;32;20100;-75
2022/03/25 05:09:19;;;;;;;15.80;7.00;;;;;;;12.44;31.33;99543.69;4427013;32;20141;-76
2022/03/25 05:11:45;;;;;;;16.00;6.50;;;;;;;12.54;31.22;99535.25;4439351;32;20101;-77
2022/03/25 05:14:10;;;;;;;17.77;6.30;;;;;;;12.65;31.13;99529.41;4437328;32;20117;-76
2022/03/25 05:16:36;;;;;;;17.02;6.87;;;;;;;12.75;30.86;99528.00;4438156;32;20437;-76
2022/03/25 05:19:02;;;;;;;17.85;6.37;;;;;;;12.79;30.77;99534.84;4437953;32;20097;-79
2022/03/25 05:21:27;;;;;;;16.12;6.70;;;;;;;12.87;30.72;99533.59;4438055;32;20142;-77
2022/03/25 05:23:53;;;;;;;18.20;7.50;;;;;;;13.00;30.14;99534.66;4416942;32;20089;-76
2022/03/25 05:26:18;;;;;;;16.55;6.25;;;;;;;13.10;30.11;99535.03;4423307;32;20165;-76
2022/03/25 05:28:44;;;;;;;17.12;6.70;;;;;;;13.24;30.20;99532.50;4409737;32;20149;-77
2022/03/25 05:31:09;;;;;;;14.93;6.70;;;;;;;13.36;29.84;99537.16;4423609;32;20126;-76
2022/03/25 05:33:34;;;;;;;18.12;6.65;;;;;;;13.47;29.82;99535.72;4413575;32;20107;-76
2022/03/25 05:36:00;;;;;;;15.63;6.50;;;;;;;13.53;29.80;99532.75;4424727;32;20077;-76
2022/03/25 05:38:25;;;;;;;17.30;6.50;;;;;;;13.69;29.43;99535.37;4423126;32;20147;-76
2022/03/25 05:40:51;;;;;;;16.17;6.55;;;;;;;13.81;29.34;99536.50;4438482;32;20105;-77
2022/03/25 05:43:16;;;;;;;18.75;7.78;;;;;;;13.86;29.28;99539.75;4436284;32;20124;-77
2022/03/25 05:45:42;;;;;;;18.10;6.80;;;;;;;14.03;29.23;99550.25;4435269;32;20353;-77
2022/03/25 05:48:07;;;;;;;15.45;6.45;;;;;;;14.02;29.23;99555.62;4424875;32;20106;-77
2022/03/25 05:50:33;;;;;;;17.33;7.10;;;;;;;14.24;29.00;99558.78;4436872;32;20086;-78
2022/03/25 05:52:58;;;;;;;15.93;6.35;;;;;;;14.39;28.56;99545.56;4424710;32;20128;-77
2022/03/25 05:55:24;;;;;;;17.48;6.95;;;;;;;14.41;28.96;99549.84;4432962;32;20086;-76
2022/03/25 05:57:49;;;;;;;16.10;6.28;;;;;;;14.52;28.53;99546.56;4425160;32;20094;-77
2022/03/25 06:00:15;;;;;;;15.00;6.15;;;;;;;14.62;28.81;99545.13;4425505;32;20441;-77
2022/03/25 06:02:42;;;;;;;18.12;7.00;;;;;;;14.73;28.42;99545.31;4427307;32;20100;-76
2022/03/25 06:05:08;;;;;;;15.82;6.30;;;;;;;14.90;27.91;99546.13;4440807;32;20112;-78
2022/03/25 06:07:38;;;;;;;14.65;6.85;;;;;;;14.89;27.93;99549.72;4440886;32;20252;-77
2022/03/25 06:10:05;;;;;;;17.58;7.15;;;;;;;14.83;27.62;99547.44;4440543;32;20115;-77
2022/03/25 06:12:31;;;;;;;14.95;6.30;;;;;;;14.86;27.21;99549.91;4426108;32;20444;-77
2022/03/25 06:14:56;;;;;;;15.13;6.40;;;;;;;14.76;27.56;99552.25;4440917;32;20100;-78
2022/03/25 06:17:22;;;;;;;16.40;6.95;;;;;;;14.84;27.47;99555.31;4435145;32;20478;-78
2022/03/25 06:19:47;;;;;;;17.00;7.43;;;;;;;14.87;27.54;99549.81;4440152;32;20109;-77
2022/03/25 06:22:13;;;;;;;17.80;6.97;;;;;;;15.06;27.78;99549.53;4436862;32;20097;-77
2022/03/25 06:24:38;;;;;;;20.48;7.55;;;;;;;15.13;27.78;99550.87;4422000;32;20380;-76
2022/03/25 06:27:04;;;;;;;18.98;7.07;;;;;;;15.23;27.58;99556.47;4426704;32;20105;-77
2022/03/25 06:29:29;;;;;;;19.98;6.75;;;;;;;15.39;27.31;99553.72;4430509;32;20098;-79
2022/03/25 06:31:56;;;;;;;15.35;6.53;;;;;;;15.55;26.68;99550.97;4419799;32;20440;-77
2022/03/25 06:34:23;;;;;;;16.50;6.68;;;;;;;15.62;26.27;99549.63;4425257;32;20081;-78
2022/03/25 06:36:48;;;;;;;16.65;6.70;;;;;;;15.61;26.43;99552.41;4435579;32;20114;-78
2022/03/25 06:39:15;;;;;;;19.65;7.03;;;;;;;15.63;26.40;99551.34;4426756;32;20105;-77
2022/03/25 06:41:40;;;;;;;16.48;6.95;;;;;;;15.89;26.13;99547.03;4426515;32;20080;-80
2022/03/25 06:44:06;;;;;;;18.40;7.05;;;;;;;15.95;25.99;99551.09;4440971;32;20115;-77
2022/03/25 06:46:32;;;;;;;17.52;6.87;;;;;;;16.00;25.64;99551.69;4426352;32;20362;-78
2022/03/25 06:48:58;;;;;;;18.35;6.90;;;;;;;16.11;25.65;99554.50;4403634;32;20101;-77
2022/03/25 06:51:24;;;;;;;18.10;6.80;;;;;;;16.09;25.27;99555.56;4411113;32;20133;-77
2022/03/25 06:53:49;;;;;;;16.98;7.72;;;;;;;16.05;25.63;99559.34;4410941;32;20085;-76
2022/03/25 06:56:15;;;;;;;18.52;7.60;;;;;;;16.22;25.48;99561.75;4424766;32;20108;-76
2022/03/25 06:58:41;;;;;;;17.75;7.22;;;;;;;16.24;24.84;99561.66;4398230;32;20465;-81
2022/03/25 07:01:07;;;;;;;16.23;6.82;;;;;;;16.14;25.39;99555.25;4411096;32;20105;-86
2022/03/25 07:03:33;;;;;;;16.55;7.28;;;;;;;16.29;25.17;99560.41;4425135;32;20097;-81
2022/03/25 07:06:02;;;;;;;19.00;7.55;;;;;;;16.37;25.13;99561.72;4411019;32;20128;-81
2022/03/25 07:08:29;;;;;;;18.33;7.35;;;;;;;16.39;24.99;99565.97;4412834;32;20141;-77
2022/03/25 07:10:55;;;;;;;20.95;6.90;;;;;;;16.58;24.69;99565.59;4414436;32;20085;-76
2022/03/25 07:13:20;;;;;;;16.12;7.43;;;;;;;16.44;24.66;99571.84;4419005;32;20147;-78
2022/03/25 07:15:46;;;;;;;16.40;7.12;;;;;;;16.46;24.64;99574.41;4438809;32;20098;-78
2022/03/25 07:18:11;;;;;;;26.45;7.78;;;;;;;16.27;23.96;99577.41;4438376;32;20154;-78
2022/03/25 07:20:37;;;;;;;24.00;7.80;;;;;;;16.49;23.73;99579.50;4425982;32;20480;-76
2022/03/25 07:23:02;;;;;;;18.87;8.55;;;;;;;16.48;25.04;99583.97;4434344;32;20147;-77
2022/03/25 07:25:29;;;;;;;19.73;8.25;;;;;;;16.61;24.09;99581.37;4437394;32;20448;-79
2022/03/25 07:27:54;;;;;;;17.52;8.23;;;;;;;16.67;25.78;99583.59;4438998;32;20124;-78
2022/03/25 07:30:20;;;;;;;17.25;7.45;;;;;;;16.71;23.99;99585.09;4424642;32;20105;-76
2022/03/25 07:32:46;;;;;;;17.90;7.65;;;;;;;16.84;24.36;99592.28;4433112;32;20097;-76
2022/03/25 07:35:12;;;;;;;22.75;8.40;;;;;;;16.76;24.81;99590.09;4438711;32;20149;-77
2022/03/25 07:37:39;;;;;;;20.27;7.97;;;;;;;16.81;24.32;99590.66;4423331;32;20093;-75
2022/03/25 07:40:06;;;;;;;17.98;8.40;;;;;;;16.89;24.93;99596.34;4411387;32;20101;-77
2022/03/25 07:42:32;;;;;;;20.37;9.00;;;;;;;16.71;24.08;99601.06;4410888;32;20108;-76
2022/03/25 07:44:57;;;;;;;16.58;7.65;;;;;;;16.87;24.68;99598.25;4410713;32;20150;-77
2022/03/25 07:47:23;;;;;;;20.15;8.27;;;;;;;16.95;24.51;99599.53;4415712;32;20116;-78
2022/03/25 07:49:48;;;;;;;18.02;7.70;;;;;;;17.02;24.12;99595.50;4436674;32;20159;-81
2022/03/25 07:52:16;;;;;;;21.83;9.07;;;;;;;17.01;24.08;99599.13;4439194;32;20372;-80
2022/03/25 07:54:42;;;;;;;19.27;8.75;;;;;;;16.98;24.10;99605.50;4424895;32;20110;-80
2022/03/25 07:57:07;;;;;;;18.48;7.37;;;;;;;17.07;24.12;99602.22;4438707;32;20097;-80
2022/03/25 07:59:33;;;;;;;20.67;7.70;;;;;;;16.85;24.18;99604.63;4438696;32;20111;-77
2022/03/25 08:01:58;;;;;;;19.95;8.27;;;;;;;17.10;24.52;99601.16;4409325;32;20614;-79
2022/03/25 08:04:24;;;;;;;19.85;8.00;;;;;;;17.05;24.42;99604.13;4408027;32;20105;-77
2022/03/25 08:06:50;;;;;;;17.67;7.93;;;;;;;17.15;24.61;99593.69;4429277;32;20111;-78
2022/03/25 08:09:16;;;;;;;18.62;7.22;;;;;;;17.23;24.59;99598.47;4438591;32;20077;-78
2022/03/25 08:11:42;;;;;;;17.33;7.07;;;;;;;17.06;23.82;99594.34;4439830;32;20127;-78
2022/03/25 08:14:07;;;;;;;15.20;6.97;;;;;;;17.17;24.24;99602.44;4438599;32;20086;-79
2022/03/25 08:16:33;;;;;;;16.20;7.45;;;;;;;17.09;24.12;99596.78;4439905;32;20696;-78
2022/03/25 08:18:58;;;;;;;18.42;7.82;;;;;;;17.15;24.09;99600.84;4435392;32;20181;-77
2022/03/25 08:21:23;;;;;;;19.27;8.10;;;;;;;17.10;23.95;99594.00;4439787;32;20078;-77
2022/03/25 08:29:17;;;;;;;17.17;7.40;;;;;;;17.21;23.31;99585.31;4439955;32;20124;-79
2022/03/25 08:31:43;;;;;;;19.62;7.47;;;;;;;16.99;24.06;99598.38;4439802;32;20085;-77
2022/03/25 08:34:14;;;;;;;17.65;7.40;;;;;;;16.90;23.93;99591.84;4439896;32;20156;-78
2022/03/25 08:36:40;;;;;;;17.50;6.85;;;;;;;16.87;23.66;99592.09;4428372;32;20093;-76
2022/03/25 08:39:05;;;;;;;16.17;6.78;;;;;;;17.14;23.70;99589.34;4424491;32;20112;-78
2022/03/25 08:41:31;;;;;;;15.73;7.57;;;;;;;17.28;23.91;99593.69;4410485;32;20130;-77
2022/03/25 08:43:56;;;;;;;18.52;7.62;;;;;;;17.28;23.47;99596.37;4416811;32;20441;-77
2022/03/25 08:46:22;;;;;;;20.10;7.45;;;;;;;17.28;23.73;99599.03;4430636;32;20081;-76
2022/03/25 08:48:47;;;;;;;17.40;7.50;;;;;;;17.35;23.31;99596.81;4438808;32;20445;-77
2022/03/25 08:51:13;;;;;;;17.12;7.70;;;;;;;16.98;23.67;99596.66;4431053;32;20145;-78
2022/03/25 08:53:40;;;;;;;20.10;7.75;;;;;;;17.20;23.86;99588.91;4428213;32;20164;-77
2022/03/25 08:56:06;;;;;;;17.00;7.80;;;;;;;17.27;23.76;99590.19;4438541;32;20077;-75
2022/03/25 08:58:31;;;;;;;19.55;8.32;;;;;;;17.27;23.38;99590.19;4426586;32;20112;-76
2022/03/25 09:00:57;;;;;;;17.25;6.93;;;;;;;16.88;23.66;99591.97;4435848;32;20093;-78
2022/03/25 09:03:23;;;;;;;21.30;7.85;;;;;;;16.87;23.98;99589.41;4432338;32;78613;-76
2022/03/25 09:05:49;;;;;;;16.92;7.20;;;;;;;17.01;23.68;99591.13;4427418;32;20417;-76
2022/03/25 09:08:15;;;;;;;17.08;7.00;;;;;;;17.13;23.57;99587.63;4438524;32;20128;-77
2022/03/25 09:10:41;;;;;;;16.08;6.85;;;;;;;17.28;23.51;99585.72;4438625;32;20154;-77
2022/03/25 09:13:07;;;;;;;15.15;6.80;;;;;;;17.24;23.96;99590.41;4438516;32;20105;-78
2022/03/25 09:15:32;;;;;;;23.75;7.28;;;;;;;17.17;23.86;99586.47;4438298;32;20187;-78
2022/03/25 09:17:57;;;;;;;16.62;7.05;;;;;;;17.14;23.79;99589.34;4438538;32;20097;-78
2022/03/25 09:20:23;;;;;;;15.80;6.78;;;;;;;17.10;24.48;99594.00;4438476;32;20081;-78
2022/03/25 09:22:48;;;;;;;16.73;6.87;;;;;;;17.19;24.09;99587.22;4438342;32;20231;-80
2022/03/25 09:25:14;;;;;;;15.82;6.97;;;;;;;17.18;23.99;99585.50;4438315;32;20093;-79
2022/03/25 09:27:40;;;;;;;18.35;7.28;;;;;;;17.08;23.83;99589.78;4438372;32;20433;-79
2022/03/25 09:30:06;;;;;;;17.85;6.60;;;;;;;17.34;23.20;99581.78;4428742;32;20143;-78
2022/03/25 09:32:32;;;;;;;16.60;6.87;;;;;;;17.34;23.58;99579.09;4437747;32;20381;-80
2022/03/25 09:35:09;;;;;;;19.70;6.85;;;;;;;17.36;23.96;99583.34;4430589;32;20136;-79
2022/03/25 09:37:45;;;;;;;21.87;8.18;;;;;;;17.34;23.63;99581.78;4438294;32;20148;-79
2022/03/25 09:40:20;;;;;;;17.10;7.10;;;;;;;17.51;24.00;99573.44;4429972;32;20107;-79
2022/03/25 09:42:46;;;;;;;15.88;6.57;;;;;;;17.57;23.72;99575.66;4426515;32;20133;-80
2022/03/25 09:45:13;;;;;;;16.92;7.18;;;;;;;17.75;23.43;99572.66;4417252;32;20098;-80
2022/03/25 09:47:39;;;;;;;16.83;7.43;;;;;;;17.45;23.42;99574.72;4427952;32;20105;-80
2022/03/25 09:50:07;;;;;;;18.70;7.22;;;;;;;17.44;23.44;99581.03;4428057;32;20072;-74
2022/03/25 09:52:34;;;;;;;16.30;6.90;;;;;;;17.55;23.34;99574.94;4431089;32;20144;-80
2022/03/25 09:55:00;;;;;;;16.25;6.55;;;;;;;17.72;23.05;99575.56;4417402;32;20106;-78
2022/03/25 09:57:29;;;;;;;16.75;6.35;;;;;;;17.37;22.88;99571.75;4433418;32;20219;-81
2022/03/25 09:59:54;;;;;;;15.90;6.78;;;;;;;17.49;23.56;99570.03;4427583;32;20107;-79
2022/03/25 10:02:20;;;;;;;16.12;6.82;;;;;;;17.80;22.69;99567.84;4428274;32;20113;-80
2022/03/25 10:04:47;;;;;;;20.45;7.32;;;;;;;17.68;22.90;99564.25;4429260;32;20128;-80
2022/03/25 10:07:20;;;;;;;19.02;7.57;;;;;;;17.76;22.93;99564.56;4417379;32;20128;-81
2022/03/25 10:09:47;;;;;;;21.52;8.30;;;;;;;17.67;22.90;99559.87;4432162;32;20148;-80
2022/03/25 10:12:23;;;;;;;19.00;7.80;;;;;;;17.47;23.19;99559.50;4429608;32;20184;-82
2022/03/25 10:14:49;;;;;;;18.40;8.05;;;;;;;17.36;23.46;99558.53;4415087;32;20105;-81
2022/03/25 10:17:15;;;;;;;17.65;7.97;;;;;;;17.61;23.28;99547.00;4432445;32;20441;-80
2022/03/25 10:19:48;;;;;;;18.58;7.90;;;;;;;17.55;23.31;99552.78;4438338;32;20187;-81
2022/03/25 10:22:21;;;;;;;21.55;8.02;;;;;;;17.60;23.19;99548.81;4438046;32;20149;-81
2022/03/25 10:24:49;;;;;;;17.98;7.55;;;;;;;17.98;23.21;99539.91;4438125;32;20092;-80
2022/03/25 10:27:19;;;;;;;21.27;8.13;;;;;;;17.88;23.01;99537.03;4438002;32;20133;-80
2022/03/25 10:29:46;;;;;;;20.25;7.70;;;;;;;18.06;23.16;99526.84;4437943;32;20092;-81
2022/03/25 10:32:15;;;;;;;19.15;7.50;;;;;;;18.21;22.98;99522.19;4423781;32;20121;-81
2022/03/25 10:34:42;;;;;;;19.17;7.50;;;;;;;18.30;23.06;99522.47;4437873;32;20093;-80
2022/03/25 10:37:11;;;;;;;19.30;7.68;;;;;;;18.19;22.26;99524.09;4437908;32;20100;-80
2022/03/25 10:39:36;;;;;;;19.90;8.48;;;;;;;18.15;21.73;99527.13;4437779;32;20089;-81
2022/03/25 10:42:07;;;;;;;17.90;7.72;;;;;;;18.04;21.99;99523.44;4424278;32;20509;-81
2022/03/25 10:44:33;;;;;;;18.77;7.60;;;;;;;18.38;22.35;99525.41;4426092;32;20456;-82
2022/03/25 10:46:59;;;;;;;18.23;7.30;;;;;;;18.43;22.12;99526.78;4426150;32;20090;-82
2022/03/25 10:49:24;;;;;;;17.55;7.40;;;;;;;18.68;21.87;99514.25;4426119;32;20147;-81
2022/03/25 10:51:57;;;;;;;16.90;7.55;;;;;;;18.54;21.81;99509.09;4425069;32;20123;-81
2022/03/25 10:54:24;;;;;;;16.67;7.57;;;;;;;18.52;21.63;99508.34;4424065;32;20117;-82
2022/03/25 10:56:54;;;;;;;19.65;8.38;;;;;;;18.72;21.77;99509.53;4429988;32;20101;-81
2022/03/25 10:59:24;;;;;;;18.48;8.77;;;;;;;18.71;21.18;99499.81;4418917;32;20111;-82
2022/03/25 11:01:51;;;;;;;18.77;8.43;;;;;;;18.72;21.03;99501.50;4416722;32;20775;-81
2022/03/25 11:04:16;;;;;;;18.15;8.95;;;;;;;18.78;22.00;99499.22;4421856;32;20171;-82
2022/03/25 11:06:44;;;;;;;20.60;8.50;;;;;;;18.82;21.17;99489.19;4410949;32;20393;-84
2022/03/25 11:09:10;;;;;;;19.15;8.95;;;;;;;18.83;21.50;99497.06;4413652;32;20101;-86
2022/03/25 11:11:37;;;;;;;18.85;8.77;;;;;;;18.81;21.59;99499.03;4423974;32;20171;-84
2022/03/25 11:14:04;;;;;;;20.85;8.68;;;;;;;18.75;21.54;99483.41;4411454;32;20110;-88
2022/03/25 11:16:32;;;;;;;17.08;8.07;;;;;;;18.76;21.32;99493.16;4424182;32;20113;-86
2022/03/25 11:18:57;;;;;;;18.40;6.50;;;;;;;18.78;21.21;99495.69;4425331;32;20136;-82
2022/03/25 11:21:23;;;;;;;14.35;5.95;;;;;;;18.85;20.76;99494.25;4411576;32;20461;-81
2022/03/25 11:23:51;;;;;;;16.75;5.20;;;;;;;18.76;20.72;99486.97;4425596;32;20354;-81
2022/03/25 11:26:21;;;;;;;13.70;4.35;;;;;;;18.83;20.88;99491.75;4398867;32;20104;-81